Time;durP1;ratioP1;P1;durP2;ratioP2;P2;SDS_P1;SDS_P2;PMS_P1;PMS_P2;Temp;Humidity;BMP_temperature;BMP_pressure;BME280_temperature;BME280_humidity;BME280_pressure;Samples;Min_cycle;Max_cycle;Signal;HPM_P1;HPM_P2
2022/12/16 00:01:32;;;;;;;36.07;23.37;;;;;;;-1.79;100.00;96847.59;5099767;28;20894;-72
2022/12/16 00:04:00;;;;;;;38.07;24.80;;;;;;;-1.88;100.00;96852.06;5100192;28;20859;-72
2022/12/16 00:06:31;;;;;;;38.47;25.70;;;;;;;-1.89;100.00;96857.44;5100028;28;20482;-73
2022/12/16 00:08:59;;;;;;;35.90;24.67;;;;;;;-1.99;100.00;96852.41;5100187;28;20462;-72
2022/12/16 00:11:25;;;;;;;36.93;23.47;;;;;;;-1.85;100.00;96859.50;5100045;28;20482;-72
2022/12/16 00:13:52;;;;;;;36.57;23.50;;;;;;;-1.84;100.00;96863.75;5100085;28;20436;-72
2022/12/16 00:16:21;;;;;;;34.77;22.57;;;;;;;-1.84;100.00;96862.94;5100025;28;20461;-72
2022/12/16 00:18:47;;;;;;;34.60;22.27;;;;;;;-1.84;100.00;96863.75;5099735;28;20435;-72
2022/12/16 00:21:14;;;;;;;37.40;24.70;;;;;;;-2.08;100.00;96858.66;5099957;28;20460;-72
2022/12/16 00:23:41;;;;;;;42.43;26.60;;;;;;;-2.18;100.00;96847.63;5099899;28;20435;-72
2022/12/16 00:26:08;;;;;;;41.13;26.33;;;;;;;-2.10;100.00;96852.81;5099546;28;20483;-72
2022/12/16 00:28:35;;;;;;;36.03;24.77;;;;;;;-1.92;100.00;96855.16;5099651;28;20432;-72
2022/12/16 00:31:01;;;;;;;37.93;24.77;;;;;;;-2.01;100.00;96861.38;5100171;28;20462;-72
2022/12/16 00:33:28;;;;;;;36.20;25.00;;;;;;;-1.92;100.00;96855.97;5099862;28;20447;-72
2022/12/16 00:35:55;;;;;;;40.23;25.50;;;;;;;-1.97;100.00;96852.25;5099841;28;20432;-72
2022/12/16 00:38:23;;;;;;;37.07;24.37;;;;;;;-1.98;100.00;96855.84;5099564;28;20957;-72
2022/12/16 00:40:49;;;;;;;38.00;23.83;;;;;;;-2.04;100.00;96854.72;5099788;28;20474;-72
2022/12/16 00:43:16;;;;;;;35.97;22.17;;;;;;;-2.04;100.00;96861.72;5099848;28;20432;-72
2022/12/16 00:45:42;;;;;;;36.37;24.93;;;;;;;-2.08;100.00;96863.84;5099456;28;20966;-72
2022/12/16 00:48:09;;;;;;;34.90;24.60;;;;;;;-1.95;100.00;96858.09;5100329;28;20442;-73
2022/12/16 00:50:36;;;;;;;36.90;25.27;;;;;;;-2.01;100.00;96867.41;5099405;28;20455;-72
2022/12/16 00:53:03;;;;;;;43.50;25.77;;;;;;;-2.02;100.00;96864.97;5099313;28;20432;-73
2022/12/16 00:55:30;;;;;;;39.27;24.97;;;;;;;-1.86;100.00;96876.13;5099433;28;20432;-72
2022/12/16 00:57:56;;;;;;;36.23;23.93;;;;;;;-1.74;100.00;96871.34;5097127;28;20424;-72
2022/12/16 01:00:23;;;;;;;38.63;25.13;;;;;;;-1.85;100.00;96863.91;5096450;28;20440;-72
2022/12/16 01:02:51;;;;;;;36.03;23.50;;;;;;;-1.75;100.00;96878.31;5096150;28;20798;-72
2022/12/16 01:05:21;;;;;;;32.00;21.83;;;;;;;-1.70;100.00;96886.47;5096481;28;20440;-72
2022/12/16 01:07:47;;;;;;;37.07;22.53;;;;;;;-1.91;100.00;96888.03;5097114;28;20555;-72
2022/12/16 01:10:14;;;;;;;36.47;23.97;;;;;;;-1.93;100.00;96892.59;5096312;28;20436;-72
2022/12/16 01:12:40;;;;;;;39.53;24.50;;;;;;;-1.96;100.00;96891.16;5095863;28;20822;-72
2022/12/16 01:15:08;;;;;;;38.90;23.77;;;;;;;-2.01;100.00;96896.06;5096108;28;20438;-73
2022/12/16 01:17:35;;;;;;;37.93;25.77;;;;;;;-1.95;100.00;96900.56;5096137;28;20515;-72
2022/12/16 01:20:02;;;;;;;36.97;24.27;;;;;;;-1.89;100.00;96899.09;5096116;28;20440;-72
2022/12/16 01:22:31;;;;;;;36.50;24.13;;;;;;;-1.93;100.00;96903.00;5095751;28;20458;-72
2022/12/16 01:24:59;;;;;;;37.13;23.17;;;;;;;-2.07;100.00;96898.53;5096066;28;20433;-72
2022/12/16 01:27:26;;;;;;;40.33;24.00;;;;;;;-2.03;100.00;96898.00;5095940;28;20542;-73
2022/12/16 01:29:53;;;;;;;39.67;25.03;;;;;;;-1.90;100.00;96900.88;5095655;28;20439;-72
2022/12/16 01:32:20;;;;;;;31.73;22.47;;;;;;;-1.92;100.00;96904.63;5095875;28;20456;-72
2022/12/16 01:34:53;;;;;;;37.43;23.30;;;;;;;-2.02;100.00;96901.44;5096249;28;20443;-72
2022/12/16 01:37:21;;;;;;;30.20;21.43;;;;;;;-2.13;100.00;96904.38;5095678;28;20490;-72
2022/12/16 01:39:48;;;;;;;34.37;23.80;;;;;;;-2.09;100.00;96898.69;5095410;28;20919;-72
2022/12/16 01:42:17;;;;;;;33.77;23.87;;;;;;;-2.05;100.00;96912.16;5095531;28;20467;-72
2022/12/16 01:44:47;;;;;;;37.03;23.93;;;;;;;-1.95;100.00;96908.38;5095594;28;20443;-72
2022/12/16 01:47:17;;;;;;;33.57;22.50;;;;;;;-1.87;100.00;96903.16;5095230;28;20515;-72
2022/12/16 01:50:01;;;;;;;34.80;22.27;;;;;;;-1.93;100.00;96914.25;5095542;28;20432;-72
2022/12/16 01:52:33;;;;;;;35.87;23.63;;;;;;;-2.03;100.00;96918.81;5077193;28;20474;-72
2022/12/16 01:55:08;;;;;;;35.07;24.37;;;;;;;-1.99;100.00;96930.53;5095262;28;20421;-72
2022/12/16 01:57:45;;;;;;;33.80;22.50;;;;;;;-2.06;100.00;96927.00;5095376;28;20443;-72
2022/12/16 02:00:12;;;;;;;37.27;22.27;;;;;;;-2.05;100.00;96925.19;5095310;28;20420;-72
2022/12/16 02:02:38;;;;;;;35.57;24.10;;;;;;;-2.05;100.00;96933.00;5095168;28;20464;-72
2022/12/16 02:05:21;;;;;;;39.83;24.10;;;;;;;-2.01;100.00;96932.50;5077025;28;20432;-72
2022/12/16 02:08:02;;;;;;;35.43;22.23;;;;;;;-1.76;100.00;96933.22;5095118;28;20464;-72
2022/12/16 02:10:39;;;;;;;34.47;22.37;;;;;;;-1.87;100.00;96931.81;5094773;28;20446;-72
2022/12/16 02:13:16;;;;;;;34.97;22.40;;;;;;;-1.94;100.00;96928.22;5094769;28;20423;-72
2022/12/16 02:15:52;;;;;;;37.70;23.43;;;;;;;-1.96;100.00;96938.03;5095109;28;20424;-72
2022/12/16 02:18:45;;;;;;;35.70;23.10;;;;;;;-1.96;100.00;96943.22;5078188;28;20417;-72
2022/12/16 02:21:26;;;;;;;39.00;23.67;;;;;;;-1.97;100.00;96936.41;5094906;28;20460;-72
2022/12/16 02:24:39;;;;;;;39.67;23.40;;;;;;;-2.01;100.00;96948.13;5078244;28;20469;-72
2022/12/16 02:27:38;;;;;;;33.83;20.77;;;;;;;-1.77;100.00;96942.81;5094796;28;20460;-72
2022/12/16 02:30:04;;;;;;;33.97;22.27;;;;;;;-1.84;100.00;96943.66;5094823;28;20427;-72
2022/12/16 02:32:48;;;;;;;32.83;22.17;;;;;;;-1.81;100.00;96938.94;5094698;28;20461;-72
2022/12/16 02:35:27;;;;;;;32.20;22.50;;;;;;;-1.86;100.00;96940.41;5094625;28;20425;-72
2022/12/16 02:38:23;;;;;;;34.37;22.07;;;;;;;-1.90;100.00;96936.53;5094634;28;20424;-72
2022/12/16 02:40:56;;;;;;;33.37;22.50;;;;;;;-1.96;100.00;96938.03;5094600;28;20535;-72
2022/12/16 02:44:09;;;;;;;33.80;22.63;;;;;;;-1.94;100.00;96932.66;5095119;28;20424;-72
2022/12/16 02:46:41;;;;;;;30.20;20.77;;;;;;;-1.87;100.00;96934.41;5057710;28;20502;-72
2022/12/16 02:49:27;;;;;;;32.53;22.10;;;;;;;-2.00;100.00;96939.34;5094418;28;20440;-72
2022/12/16 02:51:55;;;;;;;33.70;22.03;;;;;;;-1.93;100.00;96948.13;5093819;28;20472;-72
2022/12/16 02:54:22;;;;;;;33.53;22.73;;;;;;;-1.98;100.00;96952.97;5094351;28;20451;-72
2022/12/16 02:57:01;;;;;;;33.60;22.73;;;;;;;-1.92;100.00;96956.72;5076397;28;20489;-72
2022/12/16 02:59:53;;;;;;;36.03;22.73;;;;;;;-1.93;100.00;96963.72;5094488;28;20445;-73
2022/12/16 03:02:41;;;;;;;32.63;20.70;;;;;;;-1.95;100.00;96960.47;5084803;28;20474;-72
2022/12/16 03:05:17;;;;;;;32.20;22.37;;;;;;;-1.98;100.00;96971.22;5094223;28;20424;-72
2022/12/16 03:07:44;;;;;;;28.57;19.00;;;;;;;-1.97;100.00;96972.03;5094163;28;20863;-72
2022/12/16 03:10:16;;;;;;;32.93;22.27;;;;;;;-2.01;100.00;96968.13;5094011;28;20436;-72
2022/12/16 03:12:44;;;;;;;31.83;21.23;;;;;;;-2.01;100.00;96963.75;5094011;28;20463;-72
2022/12/16 03:15:15;;;;;;;31.73;21.50;;;;;;;-1.89;100.00;96956.38;5093951;28;20450;-72
2022/12/16 03:17:45;;;;;;;32.77;21.23;;;;;;;-1.89;100.00;96972.00;5094586;28;20413;-72
2022/12/16 03:20:24;;;;;;;31.17;21.37;;;;;;;-1.88;100.00;96966.66;5093960;28;20439;-72
2022/12/16 03:22:54;;;;;;;31.73;22.17;;;;;;;-1.92;100.00;96972.34;5093480;28;20439;-72
2022/12/16 03:25:21;;;;;;;32.57;22.50;;;;;;;-1.99;100.00;96972.19;5093860;28;20444;-72
2022/12/16 03:28:07;;;;;;;35.43;22.67;;;;;;;-1.88;100.00;96965.81;5075554;28;20468;-72
2022/12/16 03:30:41;;;;;;;30.13;20.90;;;;;;;-1.92;100.00;96978.38;5093455;28;20956;-72
2022/12/16 03:33:18;;;;;;;34.73;21.67;;;;;;;-1.96;100.00;96982.28;5076278;28;20903;-72
2022/12/16 03:35:50;;;;;;;33.23;21.90;;;;;;;-1.99;100.00;96990.44;5076117;28;20896;-72
2022/12/16 03:38:20;;;;;;;29.97;20.33;;;;;;;-1.87;100.00;96988.28;5075549;28;20775;-72
2022/12/16 03:40:48;;;;;;;27.53;20.47;;;;;;;-1.99;100.00;96987.03;5093547;28;20488;-72
2022/12/16 03:43:15;;;;;;;32.87;21.63;;;;;;;-1.98;100.00;96986.03;5093182;28;20440;-72
2022/12/16 03:45:45;;;;;;;32.00;21.17;;;;;;;-2.05;100.00;96992.88;5093555;28;20436;-72
2022/12/16 03:48:13;;;;;;;29.20;19.03;;;;;;;-1.90;100.00;96997.22;5093459;28;20472;-72
2022/12/16 03:50:40;;;;;;;32.40;20.03;;;;;;;-1.94;100.00;97001.16;5093265;28;20455;-72
2022/12/16 03:53:07;;;;;;;28.53;20.03;;;;;;;-1.86;100.00;96998.53;5093268;28;20425;-72
2022/12/16 03:55:34;;;;;;;28.53;19.87;;;;;;;-1.88;100.00;96999.69;5093668;28;20445;-72
2022/12/16 03:58:00;;;;;;;34.00;19.20;;;;;;;-1.95;100.00;97004.75;5093516;28;20428;-72
2022/12/16 04:00:26;;;;;;;31.60;19.00;;;;;;;-1.93;100.00;96999.38;5093407;28;20440;-72
2022/12/16 04:02:53;;;;;;;28.83;18.93;;;;;;;-2.07;100.00;97016.47;5093388;28;20436;-72
2022/12/16 04:05:19;;;;;;;28.33;18.57;;;;;;;-2.05;100.00;97008.50;5093249;28;20450;-72
2022/12/16 04:07:46;;;;;;;32.23;19.00;;;;;;;-1.97;100.00;97021.50;5093173;28;20476;-72
2022/12/16 04:10:12;;;;;;;26.97;18.73;;;;;;;-2.13;100.00;97024.13;5092968;28;20451;-72
2022/12/16 04:27:23;;;;;;;23.87;15.97;;;;;;;-2.10;100.00;97029.84;5092954;28;20408;-72
2022/12/16 04:29:23;;;;;;;19.83;13.27;;;;;;;-2.02;100.00;97034.22;5092632;28;20482;-72
2022/12/16 04:31:51;;;;;;;27.13;17.00;;;;;;;-2.22;100.00;97032.97;5092897;28;20467;-73
2022/12/16 04:34:26;;;;;;;27.90;17.20;;;;;;;-2.14;100.00;97036.34;5096706;28;20432;-72
